Time;durP1;ratioP1;P1;durP2;ratioP2;P2;SDS_P1;SDS_P2;PMS_P1;PMS_P2;Temp;Humidity;BMP_temperature;BMP_pressure;BME280_temperature;BME280_humidity;BME280_pressure;Samples;Min_cycle;Max_cycle;Signal;HPM_P1;HPM_P2
2023/05/14 00:00:59;;;;;;;7.30;3.50;;;;;;;;;;4997043;28;20085;-85
2023/05/14 00:03:26;;;;;;;4.13;3.72;;;;;;;;;;4996866;28;20456;-85
2023/05/14 00:05:53;;;;;;;4.40;3.45;;;;;;;;;;4998960;28;20046;-85
2023/05/14 00:08:20;;;;;;;3.35;3.15;;;;;;;;;;4997288;28;20053;-86
2023/05/14 00:10:47;;;;;;;3.78;3.47;;;;;;;;;;4996349;28;20050;-86
2023/05/14 00:13:15;;;;;;;5.28;3.50;;;;;;;;;;4995631;28;20046;-86
2023/05/14 00:15:42;;;;;;;4.00;3.70;;;;;;;;;;5013631;28;20060;-85
2023/05/14 00:18:11;;;;;;;3.70;3.40;;;;;;;;;;5014178;28;20060;-85
2023/05/14 00:20:38;;;;;;;4.40;3.20;;;;;;;;;;4996774;28;20050;-86
2023/05/14 00:23:05;;;;;;;3.80;3.42;;;;;;;;;;4996612;28;20054;-85
2023/05/14 00:25:32;;;;;;;3.80;3.50;;;;;;;;;;5014564;28;20459;-86
2023/05/14 00:27:59;;;;;;;8.35;3.85;;;;;;;;;;4996355;28;20137;-85
2023/05/14 00:30:27;;;;;;;4.07;3.78;;;;;;;;;;5014603;28;20049;-86
2023/05/14 00:32:54;;;;;;;4.50;3.75;;;;;;;;;;5014122;28;20046;-85
2023/05/14 00:35:21;;;;;;;5.13;3.67;;;;;;;;;;4996636;28;20092;-85
2023/05/14 00:37:48;;;;;;;8.77;4.03;;;;;;;;;;4997098;28;20049;-86
2023/05/14 00:40:16;;;;;;;4.65;3.35;;;;;;;;;;4996728;28;20397;-86
2023/05/14 00:42:43;;;;;;;4.18;3.97;;;;;;;;;;4996907;28;20064;-86
2023/05/14 00:45:10;;;;;;;4.40;3.97;;;;;;;;;;4993059;28;20492;-86
2023/05/14 00:47:38;;;;;;;5.40;4.10;;;;;;;;;;4993445;28;20058;-86
2023/05/14 00:50:06;;;;;;;4.03;3.75;;;;;;;;;;4993822;28;20046;-86
2023/05/14 00:52:33;;;;;;;4.13;3.47;;;;;;;;;;4994772;28;20085;-86
2023/05/14 00:55:02;;;;;;;5.10;4.10;;;;;;;;;;4993728;28;20046;-85
2023/05/14 00:57:29;;;;;;;4.53;4.18;;;;;;;;;;4993633;28;20066;-86
2023/05/14 00:59:57;;;;;;;4.90;4.50;;;;;;;;;;4993761;28;20429;-85
2023/05/14 01:02:25;;;;;;;4.80;4.40;;;;;;;;;;5004180;28;20054;-87
2023/05/14 01:04:53;;;;;;;8.05;4.18;;;;;;;;;;5003830;28;20046;-86
2023/05/14 01:07:37;;;;;;;6.70;5.35;;;;;;;;;;5003473;28;20110;-86
2023/05/14 01:10:17;;;;;;;5.60;4.40;;;;;;;;;;5001781;28;20494;-86
2023/05/14 01:13:01;;;;;;;5.03;4.53;;;;;;;;;;4998909;28;20054;-86
2023/05/14 01:15:31;;;;;;;4.82;4.35;;;;;;;;;;4999401;28;20137;-86
2023/05/14 01:18:08;;;;;;;5.25;4.82;;;;;;;;;;4997358;28;20138;-85
2023/05/14 01:20:35;;;;;;;6.78;5.07;;;;;;;;;;4991612;28;20085;-85
2023/05/14 01:23:04;;;;;;;6.15;4.85;;;;;;;;;;4991532;28;20085;-85
2023/05/14 01:25:31;;;;;;;7.50;4.93;;;;;;;;;;4994802;28;20050;-86
2023/05/14 01:28:17;;;;;;;6.03;4.70;;;;;;;;;;4996695;28;20055;-85
2023/05/14 01:30:49;;;;;;;5.18;4.63;;;;;;;;;;4998080;28;20078;-86
2023/05/14 01:33:17;;;;;;;5.05;4.75;;;;;;;;;;5000447;28;20047;-86
2023/05/14 01:35:45;;;;;;;10.32;5.75;;;;;;;;;;5000423;28;20129;-86
2023/05/14 01:38:14;;;;;;;6.28;5.10;;;;;;;;;;4999944;28;20046;-86
2023/05/14 01:40:41;;;;;;;7.65;5.57;;;;;;;;;;4997299;28;20089;-86
2023/05/14 01:43:09;;;;;;;5.88;5.35;;;;;;;;;;4995942;28;20133;-85
2023/05/14 01:45:36;;;;;;;6.15;5.55;;;;;;;;;;5006736;28;20137;-85
2023/05/14 01:48:04;;;;;;;7.80;6.43;;;;;;;;;;5016673;28;20148;-86
2023/05/14 01:50:31;;;;;;;6.05;5.50;;;;;;;;;;4999700;28;20460;-86
2023/05/14 01:52:59;;;;;;;8.18;7.32;;;;;;;;;;5000119;28;20060;-86
2023/05/14 01:55:26;;;;;;;7.90;6.63;;;;;;;;;;5017157;28;20527;-86
2023/05/14 01:57:53;;;;;;;7.50;6.85;;;;;;;;;;5017427;28;20145;-85
2023/05/14 02:00:24;;;;;;;8.15;7.18;;;;;;;;;;5017208;28;20054;-86
2023/05/14 02:02:52;;;;;;;8.35;6.63;;;;;;;;;;5000120;28;20556;-85
2023/05/14 02:05:20;;;;;;;6.35;5.75;;;;;;;;;;5000377;28;20053;-85
2023/05/14 02:07:47;;;;;;;7.05;5.28;;;;;;;;;;5017129;28;20485;-85
2023/05/14 02:10:14;;;;;;;5.80;5.28;;;;;;;;;;5000034;28;20397;-86
2023/05/14 02:12:41;;;;;;;5.90;5.40;;;;;;;;;;4999796;28;20512;-86
2023/05/14 02:15:09;;;;;;;5.90;5.40;;;;;;;;;;5000493;28;20050;-86
2023/05/14 02:17:37;;;;;;;5.32;4.93;;;;;;;;;;5000251;28;20046;-85
2023/05/14 02:20:04;;;;;;;4.85;4.55;;;;;;;;;;5000830;28;20049;-86
2023/05/14 02:22:31;;;;;;;5.15;4.65;;;;;;;;;;5001303;28;20073;-84
2023/05/14 02:24:58;;;;;;;5.68;5.00;;;;;;;;;;5000855;28;20050;-86
2023/05/14 02:27:26;;;;;;;6.07;5.15;;;;;;;;;;5001237;28;20068;-86
2023/05/14 02:29:55;;;;;;;6.45;5.70;;;;;;;;;;5001098;28;20136;-86
2023/05/14 02:32:22;;;;;;;10.52;5.25;;;;;;;;;;5000563;28;20145;-86
2023/05/14 02:34:49;;;;;;;7.15;5.45;;;;;;;;;;4998779;28;20053;-86
2023/05/14 02:37:16;;;;;;;5.28;4.78;;;;;;;;;;4997935;28;20054;-86
2023/05/14 02:39:44;;;;;;;5.28;4.75;;;;;;;;;;4998795;28;20128;-86
2023/05/14 02:42:11;;;;;;;7.70;5.25;;;;;;;;;;4998286;28;20523;-86
2023/05/14 02:44:38;;;;;;;8.43;5.85;;;;;;;;;;4997764;28;20060;-86
2023/05/14 02:47:05;;;;;;;9.07;4.70;;;;;;;;;;4998183;28;20128;-87
2023/05/14 02:49:32;;;;;;;5.63;4.55;;;;;;;;;;4998292;28;20046;-86
2023/05/14 02:52:00;;;;;;;5.68;5.18;;;;;;;;;;4998619;28;20132;-86
2023/05/14 02:54:27;;;;;;;5.22;4.82;;;;;;;;;;4998257;28;20053;-84
2023/05/14 02:56:54;;;;;;;5.18;4.68;;;;;;;;;;5014648;28;20050;-86
2023/05/14 02:59:22;;;;;;;5.30;4.90;;;;;;;;;;4997067;28;20137;-86
2023/05/14 03:01:50;;;;;;;15.55;13.60;;;;;;;;;;4996902;28;20058;-86
2023/05/14 03:04:18;;;;;;;9.05;8.25;;;;;;;;;;4997166;28;20064;-86
2023/05/14 03:06:45;;;;;;;7.50;6.22;;;;;;;;;;4996954;28;20447;-85
2023/05/14 03:09:13;;;;;;;7.25;6.55;;;;;;;;;;4997074;28;20089;-86
2023/05/14 03:11:40;;;;;;;9.45;6.25;;;;;;;;;;4997284;28;20046;-86
2023/05/14 03:14:07;;;;;;;9.10;6.60;;;;;;;;;;4997265;28;20140;-85
2023/05/14 03:16:34;;;;;;;7.35;6.40;;;;;;;;;;4996857;28;20053;-86
2023/05/14 03:19:02;;;;;;;10.07;6.25;;;;;;;;;;4996718;28;20054;-86
2023/05/14 03:21:30;;;;;;;10.90;6.93;;;;;;;;;;4996617;28;20128;-86
2023/05/14 03:23:57;;;;;;;10.20;7.32;;;;;;;;;;5014044;28;20432;-86
2023/05/14 03:26:24;;;;;;;5.95;5.45;;;;;;;;;;4996761;28;20050;-86
2023/05/14 03:28:52;;;;;;;6.35;5.75;;;;;;;;;;4997018;28;20056;-86
2023/05/14 03:31:19;;;;;;;6.07;5.50;;;;;;;;;;5014369;28;20076;-85
2023/05/14 03:33:46;;;;;;;6.47;5.88;;;;;;;;;;4996664;28;20460;-85
2023/05/14 03:36:14;;;;;;;9.88;5.60;;;;;;;;;;4997015;28;20405;-85
2023/05/14 03:38:41;;;;;;;24.17;19.45;;;;;;;;;;4997074;28;20056;-85
2023/05/14 03:41:08;;;;;;;8.00;6.68;;;;;;;;;;5031720;28;20044;-87
2023/05/14 03:43:35;;;;;;;5.90;5.45;;;;;;;;;;5015579;28;20056;-86
2023/05/14 03:46:02;;;;;;;8.38;5.72;;;;;;;;;;5019566;28;20515;-86
2023/05/14 03:48:29;;;;;;;5.30;4.90;;;;;;;;;;5000106;28;20049;-86
2023/05/14 03:50:57;;;;;;;5.60;5.15;;;;;;;;;;4999138;28;20097;-86
2023/05/14 03:53:24;;;;;;;6.78;5.22;;;;;;;;;;5017553;28;20050;-87
2023/05/14 03:55:51;;;;;;;5.53;4.90;;;;;;;;;;5017780;28;20054;-86
2023/05/14 03:58:18;;;;;;;5.35;4.85;;;;;;;;;;5000031;28;20056;-86
2023/05/14 04:00:45;;;;;;;5.43;5.03;;;;;;;;;;5017250;28;20108;-86
2023/05/14 04:03:13;;;;;;;5.72;5.22;;;;;;;;;;4998817;28;20045;-86
2023/05/14 04:05:40;;;;;;;6.32;5.00;;;;;;;;;;5016334;28;20076;-86
2023/05/14 04:08:08;;;;;;;5.32;4.93;;;;;;;;;;4997628;28;20049;-86
2023/05/14 04:10:35;;;;;;;6.90;5.13;;;;;;;;;;4998107;28;20497;-86
2023/05/14 04:13:02;;;;;;;5.18;4.72;;;;;;;;;;4998724;28;20114;-86
2023/05/14 04:15:29;;;;;;;4.68;4.38;;;;;;;;;;4998289;28;20483;-86
2023/05/14 04:17:56;;;;;;;4.50;4.15;;;;;;;;;;4997713;28;20141;-86
2023/05/14 04:20:24;;;;;;;5.00;4.50;;;;;;;;;;5015629;28;20501;-86
2023/05/14 04:22:51;;;;;;;6.75;5.13;;;;;;;;;;4998086;28;20050;-86
2023/05/14 04:25:18;;;;;;;4.03;3.75;;;;;;;;;;4998168;28;20054;-86
2023/05/14 04:27:46;;;;;;;4.45;4.05;;;;;;;;;;4997588;28;20050;-86
2023/05/14 04:30:13;;;;;;;5.45;4.18;;;;;;;;;;4997498;28;20046;-86
2023/05/14 04:32:40;;;;;;;5.35;4.95;;;;;;;;;;4997480;28;20052;-86
2023/05/14 04:35:09;;;;;;;11.25;6.82;;;;;;;;;;5015663;28;20053;-87
2023/05/14 04:37:36;;;;;;;8.18;5.43;;;;;;;;;;4997558;28;20046;-86
2023/05/14 04:40:03;;;;;;;4.35;4.05;;;;;;;;;;4997365;28;20049;-86
2023/05/14 04:42:31;;;;;;;4.50;4.20;;;;;;;;;;4997954;28;20056;-85
2023/05/14 04:44:58;;;;;;;4.25;3.95;;;;;;;;;;5014628;28;20069;-85
2023/05/14 04:47:25;;;;;;;4.65;4.20;;;;;;;;;;4995665;28;20078;-86
2023/05/14 04:49:52;;;;;;;4.10;3.75;;;;;;;;;;4995350;28;20050;-86
2023/05/14 04:52:20;;;;;;;4.28;3.88;;;;;;;;;;5012847;28;20054;-86
2023/05/14 04:54:47;;;;;;;4.15;3.85;;;;;;;;;;4995448;28;20073;-86
2023/05/14 04:57:14;;;;;;;3.80;3.60;;;;;;;;;;4998215;28;20045;-86
2023/05/14 04:59:41;;;;;;;4.25;3.90;;;;;;;;;;4999393;28;20089;-87
2023/05/14 05:02:08;;;;;;;4.28;3.88;;;;;;;;;;5002408;28;20045;-86
2023/05/14 05:04:35;;;;;;;3.72;3.42;;;;;;;;;;5003822;28;20050;-86
2023/05/14 05:07:04;;;;;;;4.43;4.03;;;;;;;;;;5009882;28;20045;-86
2023/05/14 05:09:31;;;;;;;3.78;3.42;;;;;;;;;;5010271;28;20086;-86
2023/05/14 05:12:00;;;;;;;3.70;3.30;;;;;;;;;;5026543;28;20049;-86
2023/05/14 05:14:27;;;;;;;5.22;3.67;;;;;;;;;;5009408;28;20053;-86
2023/05/14 05:16:54;;;;;;;7.15;4.18;;;;;;;;;;5001616;28;20501;-85
2023/05/14 05:19:22;;;;;;;6.03;3.78;;;;;;;;;;5018424;28;20056;-85
2023/05/14 05:22:06;;;;;;;5.55;4.07;;;;;;;;;;5007485;28;20045;-85
2023/05/14 05:24:33;;;;;;;4.63;3.50;;;;;;;;;;5026808;28;20077;-86
2023/05/14 05:27:00;;;;;;;5.50;4.00;;;;;;;;;;5009653;28;20133;-86
2023/05/14 05:29:27;;;;;;;4.50;3.97;;;;;;;;;;5009979;28;20548;-87
2023/05/14 05:31:54;;;;;;;6.65;4.30;;;;;;;;;;5010059;28;20060;-86
2023/05/14 05:34:22;;;;;;;6.00;4.15;;;;;;;;;;5010321;28;20105;-86
2023/05/14 05:36:50;;;;;;;5.35;4.15;;;;;;;;;;5027279;28;20113;-86
2023/05/14 05:39:17;;;;;;;4.20;3.50;;;;;;;;;;5014927;28;20061;-86
2023/05/14 05:41:44;;;;;;;4.97;3.70;;;;;;;;;;5014868;28;20485;-86
2023/05/14 05:44:11;;;;;;;3.70;3.40;;;;;;;;;;5030903;28;20064;-87
2023/05/14 05:46:39;;;;;;;3.30;3.10;;;;;;;;;;5028944;28;20084;-86
2023/05/14 05:49:06;;;;;;;4.07;3.17;;;;;;;;;;5017201;28;20056;-86
2023/05/14 05:51:33;;;;;;;12.52;10.20;;;;;;;;;;4999924;28;20050;-85
2023/05/14 05:54:00;;;;;;;17.80;15.93;;;;;;;;;;4999102;28;20058;-86
2023/05/14 05:56:28;;;;;;;13.27;11.95;;;;;;;;;;4999623;28;20054;-86
2023/05/14 05:58:55;;;;;;;9.43;8.65;;;;;;;;;;5017020;28;20078;-86
2023/05/14 06:01:22;;;;;;;12.00;7.53;;;;;;;;;;4999196;28;20405;-86
2023/05/14 06:03:50;;;;;;;10.55;8.35;;;;;;;;;;5015285;28;20049;-86
2023/05/14 06:06:18;;;;;;;4.45;4.05;;;;;;;;;;4999159;28;20523;-86
2023/05/14 06:08:45;;;;;;;5.63;3.70;;;;;;;;;;5001421;28;20500;-87
2023/05/14 06:11:12;;;;;;;7.43;3.03;;;;;;;;;;5023443;28;20046;-86
2023/05/14 06:13:39;;;;;;;4.88;3.25;;;;;;;;;;5006154;28;20420;-86
2023/05/14 06:16:06;;;;;;;8.20;3.13;;;;;;;;;;5005963;28;20583;-86
2023/05/14 06:18:34;;;;;;;7.78;3.30;;;;;;;;;;5017074;28;20064;-83
2023/05/14 06:21:01;;;;;;;10.48;3.90;;;;;;;;;;5039328;28;20050;-85
2023/05/14 06:23:29;;;;;;;11.38;4.22;;;;;;;;;;5016181;28;20057;-86
2023/05/14 06:25:56;;;;;;;6.13;3.85;;;;;;;;;;5009899;28;20177;-86
2023/05/14 06:28:23;;;;;;;5.32;3.47;;;;;;;;;;5009282;28;20074;-85
2023/05/14 06:30:52;;;;;;;11.02;4.10;;;;;;;;;;5009224;28;20050;-85
2023/05/14 06:33:28;;;;;;;9.80;3.67;;;;;;;;;;5009416;28;20054;-86
2023/05/14 06:35:56;;;;;;;8.45;3.13;;;;;;;;;;5007134;28;20054;-85
2023/05/14 06:38:23;;;;;;;9.32;3.30;;;;;;;;;;4999550;28;20056;-83
2023/05/14 06:40:52;;;;;;;4.07;3.00;;;;;;;;;;4999282;28;20405;-82
2023/05/14 06:43:19;;;;;;;9.82;3.15;;;;;;;;;;4998977;28;20050;-86
2023/05/14 06:45:50;;;;;;;5.72;3.47;;;;;;;;;;5015682;28;20153;-85
2023/05/14 06:48:17;;;;;;;6.75;3.10;;;;;;;;;;4997732;28;20068;-82
2023/05/14 06:50:45;;;;;;;7.38;3.35;;;;;;;;;;5015222;28;20468;-83
2023/05/14 06:53:12;;;;;;;4.22;2.97;;;;;;;;;;4997757;28;20045;-82
2023/05/14 06:55:39;;;;;;;4.55;2.78;;;;;;;;;;4997860;28;20048;-82
2023/05/14 06:58:07;;;;;;;4.70;3.20;;;;;;;;;;4998999;28;20050;-83
2023/05/14 07:00:34;;;;;;;50.13;37.45;;;;;;;;;;4999375;28;20056;-85
2023/05/14 07:03:01;;;;;;;10.70;9.65;;;;;;;;;;4998716;28;20129;-83
2023/05/14 07:05:29;;;;;;;93.90;78.30;;;;;;;;;;5014958;28;20054;-82
2023/05/14 07:07:56;;;;;;;34.45;30.92;;;;;;;;;;4997194;28;20129;-83
2023/05/14 07:10:23;;;;;;;5.70;5.20;;;;;;;;;;4997971;28;20164;-83
2023/05/14 07:12:51;;;;;;;6.00;5.47;;;;;;;;;;4993850;28;20042;-82
2023/05/14 07:15:18;;;;;;;29.80;26.42;;;;;;;;;;5013844;28;20041;-82
2023/05/14 07:17:45;;;;;;;7.05;6.45;;;;;;;;;;4995912;28;20077;-82
2023/05/14 07:20:12;;;;;;;2.55;2.40;;;;;;;;;;4997281;28;20108;-82
2023/05/14 07:22:40;;;;;;;18.58;16.60;;;;;;;;;;4996366;28;20133;-82
2023/05/14 07:25:07;;;;;;;17.40;15.55;;;;;;;;;;4997527;28;20050;-83
2023/05/14 07:27:34;;;;;;;30.63;24.85;;;;;;;;;;4996774;28;20064;-83
2023/05/14 07:30:01;;;;;;;7.45;6.68;;;;;;;;;;4997213;28;20046;-82
2023/05/14 07:32:29;;;;;;;4.53;3.53;;;;;;;;;;4997221;28;20096;-83
2023/05/14 07:34:57;;;;;;;3.90;3.53;;;;;;;;;;4995910;28;20045;-82
2023/05/14 07:37:24;;;;;;;4.82;4.43;;;;;;;;;;5015157;28;20056;-83
2023/05/14 07:39:52;;;;;;;2.60;2.50;;;;;;;;;;4996641;28;20054;-81
2023/05/14 07:42:20;;;;;;;3.13;2.83;;;;;;;;;;4997710;28;20100;-82
2023/05/14 07:45:02;;;;;;;4.47;2.58;;;;;;;;;;4999169;28;20058;-83
2023/05/14 07:47:29;;;;;;;4.10;2.50;;;;;;;;;;4998064;28;20069;-83
2023/05/14 07:49:57;;;;;;;3.55;2.30;;;;;;;;;;5025853;28;20041;-83
2023/05/14 07:52:24;;;;;;;2.90;2.60;;;;;;;;;;5001469;28;20125;-83
2023/05/14 07:54:51;;;;;;;3.90;3.58;;;;;;;;;;4998500;28;20045;-82
2023/05/14 07:57:19;;;;;;;5.30;4.05;;;;;;;;;;5017337;28;20053;-82
2023/05/14 07:59:47;;;;;;;3.10;2.90;;;;;;;;;;5004472;28;20050;-83
2023/05/14 08:02:15;;;;;;;2.60;2.40;;;;;;;;;;5003698;28;20057;-83
2023/05/14 08:04:43;;;;;;;8.05;6.30;;;;;;;;;;4999190;28;20086;-84
2023/05/14 08:07:10;;;;;;;8.10;6.57;;;;;;;;;;4999572;28;20060;-84
2023/05/14 08:09:37;;;;;;;3.42;3.22;;;;;;;;;;5016368;28;20042;-82
2023/05/14 08:12:05;;;;;;;3.97;2.70;;;;;;;;;;4999929;28;20480;-83
2023/05/14 08:14:32;;;;;;;3.20;3.03;;;;;;;;;;5001634;28;20141;-83
2023/05/14 08:17:00;;;;;;;4.65;3.20;;;;;;;;;;4997003;28;20046;-84
2023/05/14 08:19:27;;;;;;;3.40;3.20;;;;;;;;;;5014986;28;20046;-82
2023/05/14 08:21:54;;;;;;;3.50;3.30;;;;;;;;;;4998695;28;20527;-84
2023/05/14 08:24:21;;;;;;;3.53;3.33;;;;;;;;;;4998304;28;20041;-81
2023/05/14 08:26:48;;;;;;;3.50;3.05;;;;;;;;;;5016256;28;20042;-83
2023/05/14 08:29:15;;;;;;;4.95;3.05;;;;;;;;;;4998284;28;20490;-83
2023/05/14 08:31:43;;;;;;;4.13;3.30;;;;;;;;;;5014763;28;20065;-83
2023/05/14 08:34:10;;;;;;;3.88;3.58;;;;;;;;;;5001626;28;20053;-83
2023/05/14 08:36:38;;;;;;;3.55;3.35;;;;;;;;;;5001669;28;20045;-82
2023/05/14 08:39:08;;;;;;;4.00;3.60;;;;;;;;;;5001005;28;20081;-84
2023/05/14 08:41:36;;;;;;;4.22;3.80;;;;;;;;;;4999985;28;20196;-83
2023/05/14 08:44:13;;;;;;;3.40;3.10;;;;;;;;;;5001709;28;20053;-84
2023/05/14 08:46:40;;;;;;;3.70;3.40;;;;;;;;;;5000706;28;20057;-86
2023/05/14 08:49:16;;;;;;;3.50;3.30;;;;;;;;;;4998946;28;20052;-86
2023/05/14 08:51:47;;;;;;;3.53;3.22;;;;;;;;;;5016231;28;20136;-85
2023/05/14 08:54:16;;;;;;;3.63;3.42;;;;;;;;;;4999529;28;20073;-86
2023/05/14 08:56:47;;;;;;;6.10;3.10;;;;;;;;;;4998392;28;20053;-85
2023/05/14 08:59:18;;;;;;;3.70;3.40;;;;;;;;;;5000359;28;20106;-86
2023/05/14 09:01:48;;;;;;;3.28;2.97;;;;;;;;;;5018562;28;20077;-83
2023/05/14 09:04:18;;;;;;;3.83;3.55;;;;;;;;;;5000798;28;20108;-82
2023/05/14 09:06:46;;;;;;;3.92;3.42;;;;;;;;;;5000129;28;20050;-83
2023/05/14 09:09:13;;;;;;;3.70;3.15;;;;;;;;;;5017375;28;20592;-83
2023/05/14 09:11:41;;;;;;;3.20;2.97;;;;;;;;;;5018936;28;20117;-83
2023/05/14 09:14:09;;;;;;;2.53;2.38;;;;;;;;;;5016740;28;20060;-84
2023/05/14 09:16:37;;;;;;;2.60;2.40;;;;;;;;;;5000053;28;20119;-83
2023/05/14 09:19:04;;;;;;;3.72;3.30;;;;;;;;;;4997008;28;20420;-85
2023/05/14 09:21:31;;;;;;;6.70;2.95;;;;;;;;;;4996709;28;20054;-83
2023/05/14 09:23:59;;;;;;;4.05;3.03;;;;;;;;;;4998178;28;20053;-84
2023/05/14 09:26:31;;;;;;;2.55;2.38;;;;;;;;;;4998696;28;20054;-84
2023/05/14 09:29:02;;;;;;;3.08;2.55;;;;;;;;;;5016949;28;20469;-84
2023/05/14 09:31:30;;;;;;;3.33;3.03;;;;;;;;;;4998050;28;20058;-83
2023/05/14 09:33:58;;;;;;;3.03;2.72;;;;;;;;;;4997608;28;20457;-85
2023/05/14 09:36:26;;;;;;;2.95;2.72;;;;;;;;;;4998191;28;20137;-84
2023/05/14 09:38:56;;;;;;;3.03;2.83;;;;;;;;;;4998858;28;20164;-83
2023/05/14 09:41:24;;;;;;;3.10;2.80;;;;;;;;;;4997237;28;20141;-85
2023/05/14 09:43:51;;;;;;;7.38;3.35;;;;;;;;;;4994904;28;20133;-84
2023/05/14 09:46:18;;;;;;;3.88;2.97;;;;;;;;;;4997218;28;20062;-84
2023/05/14 09:48:46;;;;;;;3.10;2.83;;;;;;;;;;4998456;28;20129;-84
2023/05/14 09:51:13;;;;;;;3.10;2.90;;;;;;;;;;4998661;28;20056;-83
2023/05/14 09:53:41;;;;;;;3.50;2.90;;;;;;;;;;4999135;28;20453;-85
2023/05/14 09:56:08;;;;;;;2.60;2.50;;;;;;;;;;4999050;28;20308;-84
2023/05/14 09:58:36;;;;;;;2.88;2.67;;;;;;;;;;5016462;28;20054;-83
2023/05/14 10:01:03;;;;;;;2.58;2.47;;;;;;;;;;4997920;28;20050;-85
2023/05/14 10:03:31;;;;;;;2.88;2.67;;;;;;;;;;5014822;28;20053;-84
2023/05/14 10:06:01;;;;;;;2.50;2.40;;;;;;;;;;4994652;28;20045;-85
2023/05/14 10:08:33;;;;;;;2.92;2.67;;;;;;;;;;4999121;28;20057;-85
2023/05/14 10:11:01;;;;;;;2.50;2.30;;;;;;;;;;4998026;28;20050;-85
2023/05/14 10:13:30;;;;;;;2.00;1.90;;;;;;;;;;4998444;28;20046;-86
2023/05/14 10:16:19;;;;;;;2.58;2.38;;;;;;;;;;4999818;28;20564;-84
2023/05/14 10:18:50;;;;;;;2.15;2.05;;;;;;;;;;5001134;28;20096;-85
2023/05/14 10:21:23;;;;;;;2.50;2.30;;;;;;;;;;5000975;28;20108;-85
2023/05/14 10:23:50;;;;;;;2.80;2.20;;;;;;;;;;5000456;28;20056;-85
2023/05/14 10:26:17;;;;;;;2.00;1.90;;;;;;;;;;5000763;28;20049;-84
2023/05/14 10:28:45;;;;;;;2.53;2.42;;;;;;;;;;4999226;28;20054;-84
2023/05/14 10:31:12;;;;;;;2.60;2.40;;;;;;;;;;5019324;28;20393;-84
2023/05/14 10:33:46;;;;;;;2.88;2.50;;;;;;;;;;5001673;28;20042;-85
2023/05/14 10:36:14;;;;;;;2.65;2.17;;;;;;;;;;5017484;28;20054;-85
2023/05/14 10:38:41;;;;;;;2.13;1.90;;;;;;;;;;5000136;28;20125;-85
2023/05/14 10:41:14;;;;;;;2.30;2.10;;;;;;;;;;4999353;28;20056;-85
2023/05/14 10:43:42;;;;;;;2.00;1.90;;;;;;;;;;5000330;28;20132;-85
2023/05/14 10:46:09;;;;;;;2.17;2.00;;;;;;;;;;5001060;28;20551;-85
2023/05/14 10:48:37;;;;;;;2.10;2.00;;;;;;;;;;4999427;28;20413;-85
2023/05/14 10:51:07;;;;;;;2.20;2.00;;;;;;;;;;5000372;28;20416;-85
2023/05/14 10:53:41;;;;;;;2.45;1.80;;;;;;;;;;5000064;28;20049;-85
2023/05/14 10:56:10;;;;;;;1.90;1.80;;;;;;;;;;5000323;28;20045;-85
2023/05/14 10:58:38;;;;;;;1.73;1.63;;;;;;;;;;4999703;28;20555;-85
2023/05/14 11:01:06;;;;;;;1.60;1.50;;;;;;;;;;5000155;28;20501;-85
2023/05/14 11:03:39;;;;;;;1.90;1.80;;;;;;;;;;4999556;28;20046;-85
2023/05/14 11:06:07;;;;;;;;;;;;;;;;;;5010877;23;20061;-79
2023/05/14 11:08:37;;;;;;;13.10;9.02;;;;;;;;;;4981195;28;20326;-80
2023/05/14 11:11:04;;;;;;;5.60;5.10;;;;;;;;;;4981230;28;20138;-80
2023/05/14 11:13:33;;;;;;;4.00;2.33;;;;;;;;;;4998373;28;20043;-79
2023/05/14 11:16:01;;;;;;;2.10;2.00;;;;;;;;;;4980738;28;20419;-79
2023/05/14 11:18:48;;;;;;;2.33;2.22;;;;;;;;;;4985574;28;20058;-79
2023/05/14 11:21:16;;;;;;;7.07;5.60;;;;;;;;;;5001732;28;20050;-79
2023/05/14 11:23:46;;;;;;;5.95;4.03;;;;;;;;;;4998572;28;20081;-79
2023/05/14 11:26:13;;;;;;;3.03;2.83;;;;;;;;;;4981714;28;20113;-80
2023/05/14 11:28:41;;;;;;;2.30;2.20;;;;;;;;;;4980899;28;20051;-79
2023/05/14 11:31:09;;;;;;;4.90;1.90;;;;;;;;;;4998585;28;20070;-79
2023/05/14 11:33:36;;;;;;;1.95;1.85;;;;;;;;;;4981096;28;20050;-79
2023/05/14 11:36:04;;;;;;;59.22;26.27;;;;;;;;;;4980359;28;20043;-80
2023/05/14 11:38:34;;;;;;;54.42;24.85;;;;;;;;;;4980129;28;20109;-81
2023/05/14 11:41:03;;;;;;;16.58;9.43;;;;;;;;;;4979660;28;20525;-81
2023/05/14 11:43:31;;;;;;;53.15;29.33;;;;;;;;;;4996646;28;20116;-82
2023/05/14 11:46:01;;;;;;;16.80;10.40;;;;;;;;;;4979816;28;20058;-80
2023/05/14 11:48:29;;;;;;;15.32;11.82;;;;;;;;;;4979903;28;20056;-80
2023/05/14 11:50:56;;;;;;;3.75;3.55;;;;;;;;;;4975758;28;20571;-79
2023/05/14 11:53:27;;;;;;;2.90;2.70;;;;;;;;;;4978458;28;20047;-79
2023/05/14 11:55:56;;;;;;;3.00;2.88;;;;;;;;;;4978697;28;20047;-79
2023/05/14 11:58:24;;;;;;;2.35;2.25;;;;;;;;;;4978747;28;20081;-79
2023/05/14 12:00:51;;;;;;;3.78;3.47;;;;;;;;;;4996396;28;20112;-79
2023/05/14 12:03:25;;;;;;;5.53;4.18;;;;;;;;;;4978422;28;20050;-79
2023/05/14 12:05:56;;;;;;;5.97;4.80;;;;;;;;;;4977714;28;20467;-81
2023/05/14 12:08:31;;;;;;;2.10;2.00;;;;;;;;;;4977384;28;20125;-80
2023/05/14 12:10:59;;;;;;;2.05;1.95;;;;;;;;;;4995002;28;20054;-80
2023/05/14 12:13:27;;;;;;;2.03;1.92;;;;;;;;;;4994447;28;20100;-81
2023/05/14 12:15:55;;;;;;;2.45;2.25;;;;;;;;;;4979330;28;20046;-80
2023/05/14 12:18:30;;;;;;;4.70;2.00;;;;;;;;;;4978763;28;20089;-82
2023/05/14 12:21:06;;;;;;;3.20;1.95;;;;;;;;;;4979559;28;20046;-80
2023/05/14 12:23:34;;;;;;;3.72;2.30;;;;;;;;;;4977996;28;20073;-79
2023/05/14 12:26:08;;;;;;;2.15;1.95;;;;;;;;;;4977523;28;20060;-79
2023/05/14 12:28:41;;;;;;;2.33;1.95;;;;;;;;;;4978572;28;20050;-79
2023/05/14 12:31:09;;;;;;;2.25;2.15;;;;;;;;;;4978992;28;20068;-79
2023/05/14 12:33:37;;;;;;;2.17;2.08;;;;;;;;;;4978225;28;20050;-79
2023/05/14 12:36:04;;;;;;;2.42;2.33;;;;;;;;;;4979676;28;20141;-79
2023/05/14 12:38:47;;;;;;;1.67;1.63;;;;;;;;;;4981924;28;20054;-80
2023/05/14 12:41:14;;;;;;;2.20;2.10;;;;;;;;;;4980717;28;20074;-81
2023/05/14 12:43:44;;;;;;;1.90;1.80;;;;;;;;;;4979999;28;20050;-81
2023/05/14 12:46:12;;;;;;;2.28;2.17;;;;;;;;;;4979370;28;20097;-80
2023/05/14 12:48:39;;;;;;;2.00;1.90;;;;;;;;;;4978837;28;20077;-79
2023/05/14 12:51:07;;;;;;;1.90;1.80;;;;;;;;;;4978250;28;20478;-79
2023/05/14 12:53:35;;;;;;;1.88;1.77;;;;;;;;;;4978622;28;20077;-79
2023/05/14 12:56:02;;;;;;;1.92;1.83;;;;;;;;;;4979095;28;20229;-79
2023/05/14 12:58:29;;;;;;;1.95;1.73;;;;;;;;;;4979459;28;20056;-80
2023/05/14 13:00:57;;;;;;;1.83;1.73;;;;;;;;;;4978285;28;20411;-79
2023/05/14 13:03:25;;;;;;;1.63;1.63;;;;;;;;;;4978318;28;20047;-79
2023/05/14 13:05:54;;;;;;;2.28;2.10;;;;;;;;;;4977564;28;20054;-79
2023/05/14 13:08:24;;;;;;;1.73;1.65;;;;;;;;;;4977555;28;20146;-79
2023/05/14 13:10:52;;;;;;;2.53;2.22;;;;;;;;;;4977243;28;20074;-79
2023/05/14 13:13:19;;;;;;;2.30;2.10;;;;;;;;;;4977808;28;20129;-79
2023/05/14 13:15:47;;;;;;;2.10;2.00;;;;;;;;;;4994568;28;20097;-79
2023/05/14 13:18:14;;;;;;;1.90;1.80;;;;;;;;;;4976786;28;20136;-79
2023/05/14 13:20:42;;;;;;;1.90;1.80;;;;;;;;;;4979006;28;20052;-79
2023/05/14 13:23:09;;;;;;;1.77;1.70;;;;;;;;;;4981862;28;20057;-79
2023/05/14 13:25:36;;;;;;;2.05;1.95;;;;;;;;;;4980733;28;20046;-79
2023/05/14 13:28:04;;;;;;;2.13;2.03;;;;;;;;;;4981487;28;20435;-78
2023/05/14 13:30:31;;;;;;;2.30;2.20;;;;;;;;;;4997890;28;20097;-80
2023/05/14 13:32:59;;;;;;;2.67;2.40;;;;;;;;;;4980674;28;20479;-79
2023/05/14 13:35:26;;;;;;;2.17;2.08;;;;;;;;;;4981054;28;20058;-82
2023/05/14 13:37:53;;;;;;;2.47;2.20;;;;;;;;;;4980986;28;20142;-79
2023/05/14 13:40:20;;;;;;;2.30;2.10;;;;;;;;;;4980578;28;20200;-79
2023/05/14 13:42:48;;;;;;;2.00;1.83;;;;;;;;;;4980832;28;20047;-80
2023/05/14 13:45:15;;;;;;;1.88;1.70;;;;;;;;;;4980408;28;20046;-79
2023/05/14 13:47:43;;;;;;;2.25;2.05;;;;;;;;;;4979873;28;20078;-78
2023/05/14 13:50:11;;;;;;;2.92;2.72;;;;;;;;;;4996966;28;20149;-79
2023/05/14 13:52:38;;;;;;;2.72;2.20;;;;;;;;;;4997105;28;20057;-79
2023/05/14 13:55:06;;;;;;;3.20;3.00;;;;;;;;;;4997015;28;20113;-79
2023/05/14 13:57:33;;;;;;;6.97;4.82;;;;;;;;;;4996914;28;20050;-79
2023/05/14 14:00:01;;;;;;;3.17;2.97;;;;;;;;;;4979906;28;20074;-78
2023/05/14 14:02:28;;;;;;;3.72;3.42;;;;;;;;;;4997063;28;20578;-79
2023/05/14 14:04:56;;;;;;;3.30;3.10;;;;;;;;;;4979547;28;20411;-79
2023/05/14 14:07:23;;;;;;;3.05;2.83;;;;;;;;;;4980040;28;20054;-79
2023/05/14 14:09:50;;;;;;;2.60;2.50;;;;;;;;;;4997115;28;20082;-78
2023/05/14 14:12:17;;;;;;;3.10;2.65;;;;;;;;;;4979589;28;20050;-78
2023/05/14 14:14:45;;;;;;;2.72;2.42;;;;;;;;;;4996511;28;20065;-79
2023/05/14 14:17:12;;;;;;;2.70;2.60;;;;;;;;;;4979172;28;20141;-78
2023/05/14 14:19:39;;;;;;;2.80;2.70;;;;;;;;;;4996597;28;20448;-79
2023/05/14 14:22:07;;;;;;;2.83;2.60;;;;;;;;;;4979385;28;20089;-80
2023/05/14 14:24:34;;;;;;;4.00;2.47;;;;;;;;;;4980409;28;20491;-79
2023/05/14 14:27:01;;;;;;;2.50;2.40;;;;;;;;;;4980844;28;20506;-79
2023/05/14 14:29:29;;;;;;;2.67;2.53;;;;;;;;;;4980942;28;20117;-81
2023/05/14 14:31:57;;;;;;;3.50;2.92;;;;;;;;;;4980500;28;20133;-79
2023/05/14 14:34:24;;;;;;;2.75;2.65;;;;;;;;;;4981265;28;20479;-79
2023/05/14 14:36:51;;;;;;;2.72;2.53;;;;;;;;;;4980762;28;20483;-79
2023/05/14 14:39:20;;;;;;;2.47;2.22;;;;;;;;;;4980745;28;20110;-80
2023/05/14 14:41:47;;;;;;;2.38;2.28;;;;;;;;;;4998081;28;20053;-79
2023/05/14 14:44:14;;;;;;;2.60;2.50;;;;;;;;;;4981074;28;20101;-80
2023/05/14 14:46:42;;;;;;;2.63;2.45;;;;;;;;;;4980967;28;20080;-78